RK5R weather

C 817 Heliport
Busan Gwang'yeogsi, South Korea

Public forecast

Using degrees Celsius for public forecast. Weather courtesy of forecast.io.

METAR (pilot weather report)

Closest report is Gimhae International Airport, 9.6 nm (17.9 km) NW. Retrieved 2019/09/21 18:00 UTC (32 minutes ago):

RKPK 211800Z 04012KT 9000 -RA FEW015 BKN020 OVC030 19/16 Q1013

TAF (pilot weather forecast)

Closest forecast is Gimhae International Airport, 9.6 nm (17.9 km) NW. Retrieved 2019/09/21 18:00 UTC (32 minutes ago):

TAF RKPK 211700Z 2118/2224 06014KT 4800 -RA BR BKN015 OVC030 TN18/2121Z TX21/2205Z BECMG 2219/2220 06010G20KT BECMG 2200/2201 06020G30KT 1600 RA BR BKN010 OVC020 FM220600 03035G60KT 0800 +RA FG SCT005 BKN010 OVC020 FM221500 36015G25KT 3200 -RA BR BKN010 OVC020 BECMG 2218/2219 36010KT 4800 BKN015 OVC030